sensor_id;sensor_type;location;lat;lon;timestamp;temperature;humidity
63260;DHT22;49390;51.380;0.098;2024-02-23T00:00:29;4.70;99.90
63260;DHT22;49390;51.380;0.098;2024-02-23T00:04:15;4.70;99.90
63260;DHT22;49390;51.380;0.098;2024-02-23T00:08:10;3.80;99.90
63260;DHT22;49390;51.380;0.098;2024-02-23T00:16:15;4.60;99.90
63260;DHT22;49390;51.380;0.098;2024-02-23T00:19:41;4.60;99.90
63260;DHT22;49390;51.380;0.098;2024-02-23T00:22:59;4.50;99.90
63260;DHT22;49390;51.380;0.098;2024-02-23T00:25:39;4.50;99.90
63260;DHT22;49390;51.380;0.098;2024-02-23T00:28:26;4.40;99.90
63260;DHT22;49390;51.380;0.098;2024-02-23T00:31:02;4.50;99.90
63260;DHT22;49390;51.380;0.098;2024-02-23T00:33:40;5.00;99.90
63260;DHT22;49390;51.380;0.098;2024-02-23T00:36:28;4.50;99.90
63260;DHT22;49390;51.380;0.098;2024-02-23T00:39:01;4.70;99.90
63260;DHT22;49390;51.380;0.098;2024-02-23T00:41:48;4.50;99.90
63260;DHT22;49390;51.380;0.098;2024-02-23T00:44:23;4.60;99.90
63260;DHT22;49390;51.380;0.098;2024-02-23T00:47:07;4.40;99.90
63260;DHT22;49390;51.380;0.098;2024-02-23T00:49:51;3.10;99.90
63260;DHT22;49390;51.380;0.098;2024-02-23T00:52:35;4.50;99.90
63260;DHT22;49390;51.380;0.098;2024-02-23T00:55:18;4.60;99.90
63260;DHT22;49390;51.380;0.098;2024-02-23T00:57:59;4.60;99.90
63260;DHT22;49390;51.380;0.098;2024-02-23T01:00:37;4.30;99.90
63260;DHT22;49390;51.380;0.098;2024-02-23T01:03:09;3.40;99.90
63260;DHT22;49390;51.380;0.098;2024-02-23T01:05:44;4.60;99.90
63260;DHT22;49390;51.380;0.098;2024-02-23T01:08:36;4.70;99.90
63260;DHT22;49390;51.380;0.098;2024-02-23T01:11:23;4.70;99.90
63260;DHT22;49390;51.380;0.098;2024-02-23T01:14:00;4.70;99.90
63260;DHT22;49390;51.380;0.098;2024-02-23T01:16:34;4.70;99.90
63260;DHT22;49390;51.380;0.098;2024-02-23T01:19:09;4.70;99.90
63260;DHT22;49390;51.380;0.098;2024-02-23T01:21:48;4.70;99.90
63260;DHT22;49390;51.380;0.098;2024-02-23T01:24:22;4.70;99.90
63260;DHT22;49390;51.380;0.098;2024-02-23T01:27:04;4.70;99.90
63260;DHT22;49390;51.380;0.098;2024-02-23T01:30:08;4.70;99.90
63260;DHT22;49390;51.380;0.098;2024-02-23T01:32:41;4.70;99.90
63260;DHT22;49390;51.380;0.098;2024-02-23T01:35:15;4.70;99.90
63260;DHT22;49390;51.380;0.098;2024-02-23T01:37:58;4.70;99.90
63260;DHT22;49390;51.380;0.098;2024-02-23T01:40:47;4.70;99.90
63260;DHT22;49390;51.380;0.098;2024-02-23T01:43:27;4.70;99.90
63260;DHT22;49390;51.380;0.098;2024-02-23T01:46:05;4.70;99.90
63260;DHT22;49390;51.380;0.098;2024-02-23T01:48:42;4.80;99.90
63260;DHT22;49390;51.380;0.098;2024-02-23T01:51:24;4.70;99.90
63260;DHT22;49390;51.380;0.098;2024-02-23T01:53:59;4.70;99.90
63260;DHT22;49390;51.380;0.098;2024-02-23T01:56:37;3.40;99.90
63260;DHT22;49390;51.380;0.098;2024-02-23T01:59:14;4.80;99.90
63260;DHT22;49390;51.380;0.098;2024-02-23T02:01:49;4.80;99.90
63260;DHT22;49390;51.380;0.098;2024-02-23T02:04:23;4.70;99.90
63260;DHT22;49390;51.380;0.098;2024-02-23T02:06:59;5.00;99.90
63260;DHT22;49390;51.380;0.098;2024-02-23T02:09:42;5.00;99.90
63260;DHT22;49390;51.380;0.098;2024-02-23T02:12:14;5.00;99.90
63260;DHT22;49390;51.380;0.098;2024-02-23T02:15:02;5.00;99.90
63260;DHT22;49390;51.380;0.098;2024-02-23T02:17:40;5.00;99.90
63260;DHT22;49390;51.380;0.098;2024-02-23T02:20:18;5.10;99.90
63260;DHT22;49390;51.380;0.098;2024-02-23T02:23:19;5.10;99.90
63260;DHT22;49390;51.380;0.098;2024-02-23T02:25:57;5.00;99.90
63260;DHT22;49390;51.380;0.098;2024-02-23T02:28:53;5.00;99.90
63260;DHT22;49390;51.380;0.098;2024-02-23T02:31:27;5.10;99.90
63260;DHT22;49390;51.380;0.098;2024-02-23T02:34:00;5.10;99.90
63260;DHT22;49390;51.380;0.098;2024-02-23T02:36:45;5.10;99.90
63260;DHT22;49390;51.380;0.098;2024-02-23T02:39:22;5.10;99.90
63260;DHT22;49390;51.380;0.098;2024-02-23T02:41:55;5.00;99.90
63260;DHT22;49390;51.380;0.098;2024-02-23T02:44:34;5.10;99.90
63260;DHT22;49390;51.380;0.098;2024-02-23T02:47:24;5.10;99.90
63260;DHT22;49390;51.380;0.098;2024-02-23T02:49:59;5.00;99.90
63260;DHT22;49390;51.380;0.098;2024-02-23T02:52:36;5.10;99.90
63260;DHT22;49390;51.380;0.098;2024-02-23T02:55:16;5.10;99.90
63260;DHT22;49390;51.380;0.098;2024-02-23T02:57:52;5.10;99.90
63260;DHT22;49390;51.380;0.098;2024-02-23T03:00:27;5.20;99.90
63260;DHT22;49390;51.380;0.098;2024-02-23T03:03:13;5.20;99.90
63260;DHT22;49390;51.380;0.098;2024-02-23T03:05:46;5.20;99.90
63260;DHT22;49390;51.380;0.098;2024-02-23T03:08:25;5.30;99.90
63260;DHT22;49390;51.380;0.098;2024-02-23T03:11:00;5.00;99.90
63260;DHT22;49390;51.380;0.098;2024-02-23T03:13:37;5.40;99.90
63260;DHT22;49390;51.380;0.098;2024-02-23T03:16:18;5.50;99.90
63260;DHT22;49390;51.380;0.098;2024-02-23T03:19:06;5.50;99.90
63260;DHT22;49390;51.380;0.098;2024-02-23T03:22:01;5.60;99.90
63260;DHT22;49390;51.380;0.098;2024-02-23T03:24:55;5.60;99.90
63260;DHT22;49390;51.380;0.098;2024-02-23T03:27:52;5.60;99.90
63260;DHT22;49390;51.380;0.098;2024-02-23T03:30:28;5.70;99.90
63260;DHT22;49390;51.380;0.098;2024-02-23T03:33:17;5.70;99.90
63260;DHT22;49390;51.380;0.098;2024-02-23T03:35:53;5.70;99.90
63260;DHT22;49390;51.380;0.098;2024-02-23T03:38:29;5.70;99.90
63260;DHT22;49390;51.380;0.098;2024-02-23T03:41:07;5.80;99.90
63260;DHT22;49390;51.380;0.098;2024-02-23T03:43:53;5.60;99.90
63260;DHT22;49390;51.380;0.098;2024-02-23T03:46:38;5.60;99.90
63260;DHT22;49390;51.380;0.098;2024-02-23T03:49:18;5.60;99.90
63260;DHT22;49390;51.380;0.098;2024-02-23T03:51:56;5.60;99.90
63260;DHT22;49390;51.380;0.098;2024-02-23T03:54:38;5.70;99.90
63260;DHT22;49390;51.380;0.098;2024-02-23T03:57:17;5.60;99.90
63260;DHT22;49390;51.380;0.098;2024-02-23T03:59:54;5.50;99.90
63260;DHT22;49390;51.380;0.098;2024-02-23T04:02:31;5.50;99.90
63260;DHT22;49390;51.380;0.098;2024-02-23T04:05:06;5.50;99.90
63260;DHT22;49390;51.380;0.098;2024-02-23T04:07:41;5.50;99.90
63260;DHT22;49390;51.380;0.098;2024-02-23T04:10:56;5.60;99.90
63260;DHT22;49390;51.380;0.098;2024-02-23T04:13:28;5.80;99.90
63260;DHT22;49390;51.380;0.098;2024-02-23T04:16:02;5.50;99.90
63260;DHT22;49390;51.380;0.098;2024-02-23T04:18:50;5.40;99.90
63260;DHT22;49390;51.380;0.098;2024-02-23T04:21:28;5.60;99.90
63260;DHT22;49390;51.380;0.098;2024-02-23T04:24:08;5.50;99.90
63260;DHT22;49390;51.380;0.098;2024-02-23T04:26:46;5.50;99.90
63260;DHT22;49390;51.380;0.098;2024-02-23T04:29:56;5.60;99.90
63260;DHT22;49390;51.380;0.098;2024-02-23T04:32:33;5.60;99.90
63260;DHT22;49390;51.380;0.098;2024-02-23T04:35:13;5.70;99.90
63260;DHT22;49390;51.380;0.098;2024-02-23T04:37:55;5.70;99.90
63260;DHT22;49390;51.380;0.098;2024-02-23T04:40:37;5.80;99.90
63260;DHT22;49390;51.380;0.098;2024-02-23T04:43:17;5.80;99.90
63260;DHT22;49390;51.380;0.098;2024-02-23T04:46:11;5.80;99.90
63260;DHT22;49390;51.380;0.098;2024-02-23T04:48:49;5.90;99.90
63260;DHT22;49390;51.380;0.098;2024-02-23T04:52:05;5.90;99.90
63260;DHT22;49390;51.380;0.098;2024-02-23T04:55:09;6.00;99.90
63260;DHT22;49390;51.380;0.098;2024-02-23T04:57:51;5.90;99.90
63260;DHT22;49390;51.380;0.098;2024-02-23T05:00:31;6.10;99.90
63260;DHT22;49390;51.380;0.098;2024-02-23T05:03:12;6.10;99.90
63260;DHT22;49390;51.380;0.098;2024-02-23T05:05:59;6.20;99.90
63260;DHT22;49390;51.380;0.098;2024-02-23T05:08:47;6.10;99.90
63260;DHT22;49390;51.380;0.098;2024-02-23T05:11:34;6.20;99.90
63260;DHT22;49390;51.380;0.098;2024-02-23T05:14:29;6.20;99.90
63260;DHT22;49390;51.380;0.098;2024-02-23T05:17:07;6.20;99.90
63260;DHT22;49390;51.380;0.098;2024-02-23T05:19:58;6.20;99.90
63260;DHT22;49390;51.380;0.098;2024-02-23T05:22:45;6.10;99.90
63260;DHT22;49390;51.380;0.098;2024-02-23T05:25:30;6.20;99.90
63260;DHT22;49390;51.380;0.098;2024-02-23T05:28:13;5.50;99.90
63260;DHT22;49390;51.380;0.098;2024-02-23T05:30:54;6.10;99.90
63260;DHT22;49390;51.380;0.098;2024-02-23T05:33:38;6.20;99.90
63260;DHT22;49390;51.380;0.098;2024-02-23T05:36:36;6.20;99.90
63260;DHT22;49390;51.380;0.098;2024-02-23T05:39:21;6.30;99.90
63260;DHT22;49390;51.380;0.098;2024-02-23T05:42:15;6.20;99.90
63260;DHT22;49390;51.380;0.098;2024-02-23T05:44:59;6.20;99.90
63260;DHT22;49390;51.380;0.098;2024-02-23T05:47:52;6.20;99.90
63260;DHT22;49390;51.380;0.098;2024-02-23T05:50:30;6.10;99.90
63260;DHT22;49390;51.380;0.098;2024-02-23T05:53:29;6.10;99.90
63260;DHT22;49390;51.380;0.098;2024-02-23T05:56:17;6.00;99.90
63260;DHT22;49390;51.380;0.098;2024-02-23T05:58:59;6.00;99.90
63260;DHT22;49390;51.380;0.098;2024-02-23T06:01:45;5.90;99.90
63260;DHT22;49390;51.380;0.098;2024-02-23T06:04:21;5.90;99.90
63260;DHT22;49390;51.380;0.098;2024-02-23T06:07:13;5.80;99.90
63260;DHT22;49390;51.380;0.098;2024-02-23T06:09:56;6.10;99.90
63260;DHT22;49390;51.380;0.098;2024-02-23T06:13:12;5.90;99.90
63260;DHT22;49390;51.380;0.098;2024-02-23T06:16:24;5.70;99.90
63260;DHT22;49390;51.380;0.098;2024-02-23T06:19:17;5.70;99.90
63260;DHT22;49390;51.380;0.098;2024-02-23T06:22:13;5.70;99.90
63260;DHT22;49390;51.380;0.098;2024-02-23T06:25:04;5.50;99.90
63260;DHT22;49390;51.380;0.098;2024-02-23T06:28:00;5.50;99.90
63260;DHT22;49390;51.380;0.098;2024-02-23T06:30:34;5.50;99.90
63260;DHT22;49390;51.380;0.098;2024-02-23T06:33:35;5.20;99.90
63260;DHT22;49390;51.380;0.098;2024-02-23T06:36:28;5.40;99.90
63260;DHT22;49390;51.380;0.098;2024-02-23T06:39:54;5.40;99.90
63260;DHT22;49390;51.380;0.098;2024-02-23T06:42:26;5.40;99.90
63260;DHT22;49390;51.380;0.098;2024-02-23T06:44:57;5.40;99.90
63260;DHT22;49390;51.380;0.098;2024-02-23T06:47:34;5.10;99.90
63260;DHT22;49390;51.380;0.098;2024-02-23T06:50:09;5.20;99.90
63260;DHT22;49390;51.380;0.098;2024-02-23T06:52:41;5.30;99.90
63260;DHT22;49390;51.380;0.098;2024-02-23T06:55:15;5.30;99.90
63260;DHT22;49390;51.380;0.098;2024-02-23T06:57:50;5.30;99.90
63260;DHT22;49390;51.380;0.098;2024-02-23T07:00:31;5.30;99.90
63260;DHT22;49390;51.380;0.098;2024-02-23T07:03:09;5.00;99.90
63260;DHT22;49390;51.380;0.098;2024-02-23T07:05:41;5.20;99.90
63260;DHT22;49390;51.380;0.098;2024-02-23T07:08:20;5.20;99.90
63260;DHT22;49390;51.380;0.098;2024-02-23T07:10:57;5.20;99.90
63260;DHT22;49390;51.380;0.098;2024-02-23T07:13:28;5.20;99.90
63260;DHT22;49390;51.380;0.098;2024-02-23T07:16:05;5.20;99.90
63260;DHT22;49390;51.380;0.098;2024-02-23T07:18:58;5.10;99.90
63260;DHT22;49390;51.380;0.098;2024-02-23T07:21:30;5.20;99.90
63260;DHT22;49390;51.380;0.098;2024-02-23T07:24:02;5.20;99.90
63260;DHT22;49390;51.380;0.098;2024-02-23T07:26:36;5.20;99.90
63260;DHT22;49390;51.380;0.098;2024-02-23T07:29:08;5.20;99.90
63260;DHT22;49390;51.380;0.098;2024-02-23T07:31:44;5.20;99.90
63260;DHT22;49390;51.380;0.098;2024-02-23T07:34:23;5.20;99.90
63260;DHT22;49390;51.380;0.098;2024-02-23T07:36:52;5.20;99.90
63260;DHT22;49390;51.380;0.098;2024-02-23T07:39:20;5.30;99.90
63260;DHT22;49390;51.380;0.098;2024-02-23T07:41:49;5.30;99.90
63260;DHT22;49390;51.380;0.098;2024-02-23T07:44:18;5.30;99.90
63260;DHT22;49390;51.380;0.098;2024-02-23T07:46:48;5.30;99.90
63260;DHT22;49390;51.380;0.098;2024-02-23T07:49:16;5.30;99.90
63260;DHT22;49390;51.380;0.098;2024-02-23T07:51:44;5.20;99.90
63260;DHT22;49390;51.380;0.098;2024-02-23T07:54:13;5.30;99.90
63260;DHT22;49390;51.380;0.098;2024-02-23T07:56:42;4.70;99.90
63260;DHT22;49390;51.380;0.098;2024-02-23T07:59:11;5.40;99.90
63260;DHT22;49390;51.380;0.098;2024-02-23T08:01:39;5.40;99.90
63260;DHT22;49390;51.380;0.098;2024-02-23T08:04:08;5.50;99.90
63260;DHT22;49390;51.380;0.098;2024-02-23T08:06:37;5.40;99.90
63260;DHT22;49390;51.380;0.098;2024-02-23T08:09:06;5.50;99.90
63260;DHT22;49390;51.380;0.098;2024-02-23T08:11:36;5.40;99.90
63260;DHT22;49390;51.380;0.098;2024-02-23T08:14:05;5.50;99.90
63260;DHT22;49390;51.380;0.098;2024-02-23T08:16:36;5.50;99.90
63260;DHT22;49390;51.380;0.098;2024-02-23T08:19:07;5.80;99.90
63260;DHT22;49390;51.380;0.098;2024-02-23T08:21:36;5.60;99.90
63260;DHT22;49390;51.380;0.098;2024-02-23T08:24:06;5.60;99.90
63260;DHT22;49390;51.380;0.098;2024-02-23T08:26:36;5.70;99.90
63260;DHT22;49390;51.380;0.098;2024-02-23T08:29:07;5.70;99.90
63260;DHT22;49390;51.380;0.098;2024-02-23T08:31:38;5.80;99.90
63260;DHT22;49390;51.380;0.098;2024-02-23T08:34:09;5.70;99.90
63260;DHT22;49390;51.380;0.098;2024-02-23T08:36:37;5.90;99.90
63260;DHT22;49390;51.380;0.098;2024-02-23T08:39:08;5.90;99.90
63260;DHT22;49390;51.380;0.098;2024-02-23T08:41:36;6.00;99.90
63260;DHT22;49390;51.380;0.098;2024-02-23T08:44:04;6.00;99.90
63260;DHT22;49390;51.380;0.098;2024-02-23T08:46:33;6.10;99.90
63260;DHT22;49390;51.380;0.098;2024-02-23T08:49:01;6.20;99.90
63260;DHT22;49390;51.380;0.098;2024-02-23T08:51:31;6.20;99.90
63260;DHT22;49390;51.380;0.098;2024-02-23T08:53:59;6.20;99.90
63260;DHT22;49390;51.380;0.098;2024-02-23T08:56:38;5.70;99.90
63260;DHT22;49390;51.380;0.098;2024-02-23T08:59:13;6.40;99.90
63260;DHT22;49390;51.380;0.098;2024-02-23T09:01:41;6.40;99.90
63260;DHT22;49390;51.380;0.098;2024-02-23T09:04:11;6.40;99.90
63260;DHT22;49390;51.380;0.098;2024-02-23T09:06:42;6.50;99.90
63260;DHT22;49390;51.380;0.098;2024-02-23T09:09:10;6.50;99.90
63260;DHT22;49390;51.380;0.098;2024-02-23T09:11:39;6.60;99.90
63260;DHT22;49390;51.380;0.098;2024-02-23T09:14:07;6.90;99.90
63260;DHT22;49390;51.380;0.098;2024-02-23T09:16:36;7.20;99.90
63260;DHT22;49390;51.380;0.098;2024-02-23T09:19:05;7.50;99.90
63260;DHT22;49390;51.380;0.098;2024-02-23T09:21:35;7.80;99.90
63260;DHT22;49390;51.380;0.098;2024-02-23T09:24:03;8.10;99.90
63260;DHT22;49390;51.380;0.098;2024-02-23T09:26:31;8.40;99.90
63260;DHT22;49390;51.380;0.098;2024-02-23T09:28:59;8.70;99.90
63260;DHT22;49390;51.380;0.098;2024-02-23T09:31:27;9.00;99.90
63260;DHT22;49390;51.380;0.098;2024-02-23T09:33:56;9.10;99.90
63260;DHT22;49390;51.380;0.098;2024-02-23T09:36:24;9.10;99.90
63260;DHT22;49390;51.380;0.098;2024-02-23T09:38:52;9.20;99.90
63260;DHT22;49390;51.380;0.098;2024-02-23T09:41:23;9.30;99.90
63260;DHT22;49390;51.380;0.098;2024-02-23T09:43:52;9.50;99.90
63260;DHT22;49390;51.380;0.098;2024-02-23T09:46:25;9.50;99.90
63260;DHT22;49390;51.380;0.098;2024-02-23T09:48:55;9.50;99.90
63260;DHT22;49390;51.380;0.098;2024-02-23T09:51:25;9.50;99.90
63260;DHT22;49390;51.380;0.098;2024-02-23T09:53:53;9.40;99.90
63260;DHT22;49390;51.380;0.098;2024-02-23T09:56:26;9.40;99.90
63260;DHT22;49390;51.380;0.098;2024-02-23T09:59:01;9.40;99.90
63260;DHT22;49390;51.380;0.098;2024-02-23T10:01:31;9.30;99.90
63260;DHT22;49390;51.380;0.098;2024-02-23T10:04:02;9.30;99.90
63260;DHT22;49390;51.380;0.098;2024-02-23T10:06:39;9.20;99.90
63260;DHT22;49390;51.380;0.098;2024-02-23T10:09:07;9.20;99.90
63260;DHT22;49390;51.380;0.098;2024-02-23T10:11:35;9.20;99.90
63260;DHT22;49390;51.380;0.098;2024-02-23T10:14:04;9.20;99.90
63260;DHT22;49390;51.380;0.098;2024-02-23T10:16:32;9.30;99.90
63260;DHT22;49390;51.380;0.098;2024-02-23T10:19:01;9.30;99.90
63260;DHT22;49390;51.380;0.098;2024-02-23T10:21:29;9.30;99.90
63260;DHT22;49390;51.380;0.098;2024-02-23T10:23:56;9.30;99.90
63260;DHT22;49390;51.380;0.098;2024-02-23T10:26:26;9.30;99.90
63260;DHT22;49390;51.380;0.098;2024-02-23T10:28:55;9.30;99.90
63260;DHT22;49390;51.380;0.098;2024-02-23T10:31:24;9.30;99.90
63260;DHT22;49390;51.380;0.098;2024-02-23T10:33:54;9.20;99.90
63260;DHT22;49390;51.380;0.098;2024-02-23T10:36:27;9.30;99.90
63260;DHT22;49390;51.380;0.098;2024-02-23T10:39:00;9.30;99.90
63260;DHT22;49390;51.380;0.098;2024-02-23T10:41:34;9.30;99.90
63260;DHT22;49390;51.380;0.098;2024-02-23T10:44:03;9.30;99.90
63260;DHT22;49390;51.380;0.098;2024-02-23T10:46:32;9.40;99.90
63260;DHT22;49390;51.380;0.098;2024-02-23T10:49:01;9.40;99.90
63260;DHT22;49390;51.380;0.098;2024-02-23T10:51:31;9.50;99.90
63260;DHT22;49390;51.380;0.098;2024-02-23T10:54:00;9.50;99.90
63260;DHT22;49390;51.380;0.098;2024-02-23T10:56:28;9.60;99.90
63260;DHT22;49390;51.380;0.098;2024-02-23T10:58:56;9.60;99.90
63260;DHT22;49390;51.380;0.098;2024-02-23T11:01:24;9.70;99.90
63260;DHT22;49390;51.380;0.098;2024-02-23T11:03:53;9.90;99.90
63260;DHT22;49390;51.380;0.098;2024-02-23T11:06:27;10.00;99.20
63260;DHT22;49390;51.380;0.098;2024-02-23T11:09:05;10.20;98.00
63260;DHT22;49390;51.380;0.098;2024-02-23T11:11:36;10.30;97.10
63260;DHT22;49390;51.380;0.098;2024-02-23T11:14:08;10.30;96.40
63260;DHT22;49390;51.380;0.098;2024-02-23T11:16:40;10.40;95.70
63260;DHT22;49390;51.380;0.098;2024-02-23T11:19:09;10.40;95.40
63260;DHT22;49390;51.380;0.098;2024-02-23T11:21:39;10.60;95.00
63260;DHT22;49390;51.380;0.098;2024-02-23T11:24:07;10.60;94.50
63260;DHT22;49390;51.380;0.098;2024-02-23T11:26:37;10.70;93.30
63260;DHT22;49390;51.380;0.098;2024-02-23T11:29:11;10.60;92.90
63260;DHT22;49390;51.380;0.098;2024-02-23T11:31:46;10.60;92.60
63260;DHT22;49390;51.380;0.098;2024-02-23T11:34:13;10.40;93.10
63260;DHT22;49390;51.380;0.098;2024-02-23T11:36:51;10.30;93.50
63260;DHT22;49390;51.380;0.098;2024-02-23T11:39:20;10.20;93.80
63260;DHT22;49390;51.380;0.098;2024-02-23T11:41:50;10.10;93.70
63260;DHT22;49390;51.380;0.098;2024-02-23T11:44:17;10.00;93.60
63260;DHT22;49390;51.380;0.098;2024-02-23T11:46:49;9.90;93.20
63260;DHT22;49390;51.380;0.098;2024-02-23T11:49:17;9.90;93.40
63260;DHT22;49390;51.380;0.098;2024-02-23T11:51:45;9.80;93.90
63260;DHT22;49390;51.380;0.098;2024-02-23T11:54:12;9.90;93.90
63260;DHT22;49390;51.380;0.098;2024-02-23T11:56:40;9.80;93.70
63260;DHT22;49390;51.380;0.098;2024-02-23T11:59:10;9.80;93.40
63260;DHT22;49390;51.380;0.098;2024-02-23T12:01:38;9.90;93.90
63260;DHT22;49390;51.380;0.098;2024-02-23T12:04:06;9.90;93.60
63260;DHT22;49390;51.380;0.098;2024-02-23T12:06:34;9.90;93.60
63260;DHT22;49390;51.380;0.098;2024-02-23T12:09:03;10.00;93.20
63260;DHT22;49390;51.380;0.098;2024-02-23T12:11:32;10.10;92.80
63260;DHT22;49390;51.380;0.098;2024-02-23T12:14:01;10.20;92.70
63260;DHT22;49390;51.380;0.098;2024-02-23T12:16:35;10.20;92.40
63260;DHT22;49390;51.380;0.098;2024-02-23T12:19:08;10.30;92.00
63260;DHT22;49390;51.380;0.098;2024-02-23T12:21:36;10.30;91.70
63260;DHT22;49390;51.380;0.098;2024-02-23T12:24:05;10.30;91.90
63260;DHT22;49390;51.380;0.098;2024-02-23T12:26:36;10.30;91.90
63260;DHT22;49390;51.380;0.098;2024-02-23T12:29:05;10.30;91.80
63260;DHT22;49390;51.380;0.098;2024-02-23T12:31:33;10.20;91.70
63260;DHT22;49390;51.380;0.098;2024-02-23T12:34:02;10.20;91.40
63260;DHT22;49390;51.380;0.098;2024-02-23T12:36:30;10.20;91.20
63260;DHT22;49390;51.380;0.098;2024-02-23T12:39:02;10.30;90.80
63260;DHT22;49390;51.380;0.098;2024-02-23T12:41:30;10.30;90.40
63260;DHT22;49390;51.380;0.098;2024-02-23T12:43:58;10.40;90.00
63260;DHT22;49390;51.380;0.098;2024-02-23T12:46:26;10.50;87.30
63260;DHT22;49390;51.380;0.098;2024-02-23T12:48:54;10.50;88.30
63260;DHT22;49390;51.380;0.098;2024-02-23T12:51:25;10.50;88.80
63260;DHT22;49390;51.380;0.098;2024-02-23T12:53:53;10.50;88.60
63260;DHT22;49390;51.380;0.098;2024-02-23T12:56:21;10.50;89.00
63260;DHT22;49390;51.380;0.098;2024-02-23T12:58:49;10.40;89.60
63260;DHT22;49390;51.380;0.098;2024-02-23T13:01:17;10.50;90.10
63260;DHT22;49390;51.380;0.098;2024-02-23T13:03:45;10.50;90.30
63260;DHT22;49390;51.380;0.098;2024-02-23T13:06:13;10.50;89.10
63260;DHT22;49390;51.380;0.098;2024-02-23T13:08:41;10.40;87.90
63260;DHT22;49390;51.380;0.098;2024-02-23T13:11:10;10.40;89.30
63260;DHT22;49390;51.380;0.098;2024-02-23T13:13:38;10.40;88.90
63260;DHT22;49390;51.380;0.098;2024-02-23T13:16:10;10.30;89.90
63260;DHT22;49390;51.380;0.098;2024-02-23T13:18:38;10.30;90.20
63260;DHT22;49390;51.380;0.098;2024-02-23T13:21:06;10.30;89.90
63260;DHT22;49390;51.380;0.098;2024-02-23T13:23:38;10.30;90.30
63260;DHT22;49390;51.380;0.098;2024-02-23T13:26:08;10.30;90.90
63260;DHT22;49390;51.380;0.098;2024-02-23T13:28:43;10.30;90.70
63260;DHT22;49390;51.380;0.098;2024-02-23T13:31:12;10.40;90.90
63260;DHT22;49390;51.380;0.098;2024-02-23T13:33:41;10.30;90.40
63260;DHT22;49390;51.380;0.098;2024-02-23T13:36:10;10.30;90.10
63260;DHT22;49390;51.380;0.098;2024-02-23T13:38:38;10.30;89.60
63260;DHT22;49390;51.380;0.098;2024-02-23T13:41:07;10.30;90.00
63260;DHT22;49390;51.380;0.098;2024-02-23T13:43:35;10.30;90.00
63260;DHT22;49390;51.380;0.098;2024-02-23T13:46:03;10.30;89.50
63260;DHT22;49390;51.380;0.098;2024-02-23T13:48:31;10.30;88.80
63260;DHT22;49390;51.380;0.098;2024-02-23T13:51:00;10.30;89.70
63260;DHT22;49390;51.380;0.098;2024-02-23T13:53:31;10.30;90.20
63260;DHT22;49390;51.380;0.098;2024-02-23T13:56:00;10.40;90.40
63260;DHT22;49390;51.380;0.098;2024-02-23T13:58:29;10.40;90.30
63260;DHT22;49390;51.380;0.098;2024-02-23T14:00:57;10.40;90.30
63260;DHT22;49390;51.380;0.098;2024-02-23T14:03:25;10.40;90.50
63260;DHT22;49390;51.380;0.098;2024-02-23T14:05:53;10.40;90.00
63260;DHT22;49390;51.380;0.098;2024-02-23T14:08:20;10.40;90.00
63260;DHT22;49390;51.380;0.098;2024-02-23T14:10:48;10.60;88.90
63260;DHT22;49390;51.380;0.098;2024-02-23T14:13:16;10.70;88.60
63260;DHT22;49390;51.380;0.098;2024-02-23T14:15:44;10.80;88.70
63260;DHT22;49390;51.380;0.098;2024-02-23T14:18:12;10.80;87.50
63260;DHT22;49390;51.380;0.098;2024-02-23T14:20:41;10.80;87.00
63260;DHT22;49390;51.380;0.098;2024-02-23T14:23:08;10.70;87.00
63260;DHT22;49390;51.380;0.098;2024-02-23T14:25:36;10.60;86.60
63260;DHT22;49390;51.380;0.098;2024-02-23T14:28:04;10.50;86.80
63260;DHT22;49390;51.380;0.098;2024-02-23T14:30:32;10.40;87.50
63260;DHT22;49390;51.380;0.098;2024-02-23T14:33:00;10.30;88.50
63260;DHT22;49390;51.380;0.098;2024-02-23T14:35:28;10.20;87.90
63260;DHT22;49390;51.380;0.098;2024-02-23T14:37:56;10.10;88.10
63260;DHT22;49390;51.380;0.098;2024-02-23T14:40:24;10.10;88.50
63260;DHT22;49390;51.380;0.098;2024-02-23T14:42:51;10.10;89.10
63260;DHT22;49390;51.380;0.098;2024-02-23T14:45:19;10.00;87.00
63260;DHT22;49390;51.380;0.098;2024-02-23T14:47:49;9.90;87.60
63260;DHT22;49390;51.380;0.098;2024-02-23T14:50:18;9.90;87.70
63260;DHT22;49390;51.380;0.098;2024-02-23T14:52:46;9.80;88.20
63260;DHT22;49390;51.380;0.098;2024-02-23T14:55:14;9.70;89.20
63260;DHT22;49390;51.380;0.098;2024-02-23T14:57:43;9.60;90.40
63260;DHT22;49390;51.380;0.098;2024-02-23T15:00:11;9.50;91.40
63260;DHT22;49390;51.380;0.098;2024-02-23T15:02:39;9.50;92.20
63260;DHT22;49390;51.380;0.098;2024-02-23T15:05:07;9.30;93.00
63260;DHT22;49390;51.380;0.098;2024-02-23T15:07:37;9.20;94.00
63260;DHT22;49390;51.380;0.098;2024-02-23T15:10:05;9.10;94.90
63260;DHT22;49390;51.380;0.098;2024-02-23T15:12:36;8.90;96.10
63260;DHT22;49390;51.380;0.098;2024-02-23T15:15:04;8.70;96.90
63260;DHT22;49390;51.380;0.098;2024-02-23T15:17:34;8.60;98.40
63260;DHT22;49390;51.380;0.098;2024-02-23T15:20:04;8.40;99.90
63260;DHT22;49390;51.380;0.098;2024-02-23T15:22:32;8.30;99.90
63260;DHT22;49390;51.380;0.098;2024-02-23T15:25:00;8.30;99.90
63260;DHT22;49390;51.380;0.098;2024-02-23T15:27:28;8.10;99.90
63260;DHT22;49390;51.380;0.098;2024-02-23T15:44:57;7.20;99.90
63260;DHT22;49390;51.380;0.098;2024-02-23T15:53:48;7.00;99.90
63260;DHT22;49390;51.380;0.098;2024-02-23T15:57:39;7.10;99.90
63260;DHT22;49390;51.380;0.098;2024-02-23T16:10:25;7.30;99.90
63260;DHT22;49390;51.380;0.098;2024-02-23T16:13:58;6.60;99.90
63260;DHT22;49390;51.380;0.098;2024-02-23T16:17:45;7.30;99.90
63260;DHT22;49390;51.380;0.098;2024-02-23T16:21:02;7.10;99.90
63260;DHT22;49390;51.380;0.098;2024-02-23T16:24:30;7.10;99.90
63260;DHT22;49390;51.380;0.098;2024-02-23T16:28:08;7.10;99.90
63260;DHT22;49390;51.380;0.098;2024-02-23T16:31:01;7.30;99.90
63260;DHT22;49390;51.380;0.098;2024-02-23T16:33:40;7.40;99.90
63260;DHT22;49390;51.380;0.098;2024-02-23T16:36:23;7.40;99.90
63260;DHT22;49390;51.380;0.098;2024-02-23T16:39:17;7.40;99.90
63260;DHT22;49390;51.380;0.098;2024-02-23T16:41:52;7.40;99.90
63260;DHT22;49390;51.380;0.098;2024-02-23T16:44:29;7.40;99.90
63260;DHT22;49390;51.380;0.098;2024-02-23T16:47:10;7.40;99.90
63260;DHT22;49390;51.380;0.098;2024-02-23T16:49:42;7.40;99.90
63260;DHT22;49390;51.380;0.098;2024-02-23T16:52:12;7.40;99.90
63260;DHT22;49390;51.380;0.098;2024-02-23T16:54:48;7.40;99.90
63260;DHT22;49390;51.380;0.098;2024-02-23T16:57:22;7.40;99.90
63260;DHT22;49390;51.380;0.098;2024-02-23T17:00:06;7.40;99.90
63260;DHT22;49390;51.380;0.098;2024-02-23T17:02:49;7.40;99.90
63260;DHT22;49390;51.380;0.098;2024-02-23T17:05:41;7.60;99.90
63260;DHT22;49390;51.380;0.098;2024-02-23T17:08:17;7.30;99.90
63260;DHT22;49390;51.380;0.098;2024-02-23T17:10:50;7.30;99.90
63260;DHT22;49390;51.380;0.098;2024-02-23T17:13:29;7.10;99.90
63260;DHT22;49390;51.380;0.098;2024-02-23T17:16:16;7.00;99.90
63260;DHT22;49390;51.380;0.098;2024-02-23T17:18:53;6.90;99.90
63260;DHT22;49390;51.380;0.098;2024-02-23T17:21:23;6.80;99.90